Flintstone, Georgia
Current Conditions -  °F | °C
As of 3:53 AM on Thursday 27 Nov 2014 (Local Time) from KCHA Reporting Station
Overcast Overcast  
Wind Chill: 35°   Ceiling: 3500
Heat Index: 42°   Visibility: 10mi
Dew Point: 31°   Wind: 15mph
Humidity: 65%   Direction: 300°WNW
Pressure: 30.12"   Gusts: 21mph
Location:  34.94°N, 85.34°W
Report Text: KCHA 270853Z AUTO 30013G18KT 10SM BKN035 OVC042 06/M01 A3012 RMK AO2 SLP201 T00561006 53017
Loading
Personal Weather Stations






























Interactive Weather Map New forecast layout! Learn more

10-Day Weather Forecast

Advertisements
Track Severe Weather on mobile